Pansey, Alabama
Current Conditions -  °F | °C
As of 9:53 AM on Thursday 23 Oct 2014 (Local Time) from KDHN Reporting Station
Clear Clear  
Wind Chill: 16°   Ceiling: Unl
Heat Index: 16°   Visibility: 10mi
Dew Point:   Wind: 6mph
Humidity: 60%   Direction: 80°E
Pressure: 30.15"   Gusts: NA
Location:  31.15°N, 85.18°W
Report Text: KDHN 231453Z 08005KT 10SM CLR 16/08 A3015 RMK AO2 SLP208 T01610083 50007
Loading
Personal Weather Stations






























Interactive Weather Map
Tropical Storm Tracking
New forecast layout! Learn more

10-Day Weather Forecast

Advertisements
Track Severe Weather on mobile